Time;durP1;ratioP1;P1;durP2;ratioP2;P2;SDS_P1;SDS_P2;PMS_P1;PMS_P2;Temp;Humidity;BMP_temperature;BMP_pressure;BME280_temperature;BME280_humidity;BME280_pressure;Samples;Min_cycle;Max_cycle;Signal;HPM_P1;HPM_P2
2023/09/04 00:02:08;;;;;;;1.70;1.50;;;20.40;85.20;;;;;;5072433;28;20475;-34
2023/09/04 00:04:35;;;;;;;1.42;1.30;;;19.60;86.10;;;;;;5072442;28;20127;-34
2023/09/04 00:07:02;;;;;;;2.47;1.50;;;20.30;73.50;;;;;;5072548;28;20450;-35
2023/09/04 00:09:29;;;;;;;2.30;1.48;;;19.30;85.90;;;;;;5071966;28;20040;-39
2023/09/04 00:11:56;;;;;;;1.77;1.50;;;;;;;;;;5059805;28;20132;-35
2023/09/04 00:14:24;;;;;;;2.00;1.45;;;19.90;77.60;;;;;;5052118;28;20176;-36
2023/09/04 00:16:51;;;;;;;1.50;1.40;;;19.90;86.00;;;;;;5052310;28;20517;-34
2023/09/04 00:19:18;;;;;;;3.10;1.55;;;20.30;86.10;;;;;;5052338;28;20144;-38
2023/09/04 00:21:44;;;;;;;1.52;1.33;;;20.50;86.20;;;;;;5052269;28;20071;-35
2023/09/04 00:24:11;;;;;;;1.52;1.25;;;19.60;85.80;;;;;;5051954;28;20132;-36
2023/09/04 00:26:38;;;;;;;2.28;1.38;;;;;;;;;;5057295;28;20128;-35
2023/09/04 00:29:05;;;;;;;1.65;1.30;;;20.00;86.30;;;;;;5072085;28;20041;-35
2023/09/04 00:31:33;;;;;;;1.38;1.20;;;20.10;68.50;;;;;;5071993;28;20592;-34
2023/09/04 00:34:00;;;;;;;1.23;1.10;;;19.60;85.90;;;;;;5071704;28;20127;-36
2023/09/04 00:36:27;;;;;;;3.75;1.30;;;19.80;77.70;;;;;;5071450;28;20123;-34
2023/09/04 00:38:53;;;;;;;1.42;1.30;;;19.50;86.60;;;;;;5071947;28;20144;-34
2023/09/04 00:41:20;;;;;;;1.95;1.40;;;;;;;;;;5071607;28;20086;-35
2023/09/04 00:43:47;;;;;;;1.25;1.10;;;;;;;;;;5070499;28;20486;-38
2023/09/04 00:46:14;;;;;;;2.33;1.30;;;19.60;86.10;;;;;;5072140;28;20206;-37
2023/09/04 00:48:42;;;;;;;1.40;1.30;;;18.90;74.90;;;;;;5071889;28;20127;-36
2023/09/04 00:51:09;;;;;;;1.60;1.30;;;20.30;74.30;;;;;;5071139;28;20123;-38
2023/09/04 00:53:36;;;;;;;1.73;1.20;;;20.00;68.30;;;;;;5071187;28;20479;-36
2023/09/04 00:56:03;;;;;;;1.40;1.30;;;;;;;;;;5072004;28;20124;-37
2023/09/04 00:58:30;;;;;;;1.77;1.30;;;20.40;86.10;;;;;;5064552;28;20135;-34
2023/09/04 01:00:57;;;;;;;1.42;1.23;;;;;;;;;;5051813;28;20144;-34
2023/09/04 01:03:24;;;;;;;1.30;1.20;;;19.30;82.70;;;;;;5051571;28;20127;-35
2023/09/04 01:05:52;;;;;;;1.50;1.40;;;19.70;85.70;;;;;;5051522;28;20128;-34
2023/09/04 01:08:19;;;;;;;1.30;1.20;;;20.20;86.00;;;;;;5061604;28;20132;-36
2023/09/04 01:10:48;;;;;;;1.40;1.30;;;19.90;68.30;;;;;;5071816;28;20128;-34
2023/09/04 01:13:18;;;;;;;1.85;1.48;;;20.00;68.40;;;;;;5071375;28;20140;-33
2023/09/04 01:15:44;;;;;;;1.33;1.23;;;20.00;86.10;;;;;;5070851;28;20080;-35
2023/09/04 01:18:11;;;;;;;1.92;1.45;;;;;;;;;;5071600;28;20127;-35
2023/09/04 01:20:40;;;;;;;1.30;1.10;;;19.10;77.80;;;;;;5071188;28;20119;-36
2023/09/04 01:23:08;;;;;;;1.42;1.30;;;19.40;75.80;;;;;;5071528;28;20127;-34
2023/09/04 01:25:41;;;;;;;1.58;1.30;;;20.10;85.90;;;;;;5071384;28;20551;-39
2023/09/04 01:28:11;;;;;;;1.30;1.20;;;19.90;68.30;;;;;;5071788;28;20114;-37
2023/09/04 01:30:40;;;;;;;1.40;1.30;;;19.90;68.30;;;;;;5061504;28;20056;-36
2023/09/04 01:33:08;;;;;;;1.40;1.30;;;19.90;68.20;;;;;;5050894;28;20084;-39
2023/09/04 01:35:35;;;;;;;1.48;1.38;;;20.40;86.10;;;;;;5051323;28;20132;-38
2023/09/04 01:38:03;;;;;;;1.40;1.30;;;20.80;86.60;;;;;;5069311;28;20124;-36
2023/09/04 01:40:31;;;;;;;1.60;1.20;;;;;;;;;;5071365;28;20135;-33
2023/09/04 01:42:58;;;;;;;2.33;1.45;;;;;;;;;;5071003;28;20049;-37
2023/09/04 01:45:25;;;;;;;1.98;1.40;;;20.10;83.90;;;;;;5066846;28;20124;-35
2023/09/04 01:47:52;;;;;;;1.70;1.50;;;19.20;81.90;;;;;;5051150;28;20148;-37
2023/09/04 01:50:19;;;;;;;1.52;1.30;;;;;;;;;;5051123;28;20602;-33
2023/09/04 01:52:45;;;;;;;2.03;1.40;;;20.90;86.50;;;;;;5051081;28;20477;-35
2023/09/04 01:55:13;;;;;;;1.30;1.20;;;20.60;86.10;;;;;;5063806;28;20139;-37
2023/09/04 01:57:40;;;;;;;1.70;1.50;;;19.70;86.10;;;;;;5071337;28;20137;-35
2023/09/04 02:00:09;;;;;;;1.30;1.20;;;19.90;68.20;;;;;;5070454;28;20124;-35
2023/09/04 02:02:35;;;;;;;1.40;1.20;;;19.90;85.60;;;;;;5073488;28;20411;-34
2023/09/04 02:05:02;;;;;;;1.70;1.40;;;19.90;85.70;;;;;;5068745;28;20136;-37
2023/09/04 02:07:29;;;;;;;1.77;1.50;;;;;;;;;;5066355;28;20052;-33
2023/09/04 02:09:56;;;;;;;1.40;1.30;;;20.50;85.90;;;;;;5064087;28;20120;-34
2023/09/04 02:12:24;;;;;;;2.03;1.30;;;18.80;84.90;;;;;;5065312;28;20123;-35
2023/09/04 02:14:52;;;;;;;2.15;1.50;;;19.90;67.90;;;;;;5063790;28;20119;-38
2023/09/04 02:17:18;;;;;;;1.45;1.27;;;20.20;85.70;;;;;;5062564;28;20127;-36
2023/09/04 02:19:46;;;;;;;2.03;1.30;;;;;;;;;;5065300;28;20497;-35
2023/09/04 02:22:13;;;;;;;1.23;1.10;;;20.10;85.60;;;;;;5064103;28;20045;-35
2023/09/04 02:24:41;;;;;;;3.17;1.30;;;20.20;86.00;;;;;;5063346;28;20132;-39
2023/09/04 02:27:08;;;;;;;6.13;1.33;;;20.10;76.50;;;;;;5063129;28;20516;-31
2023/09/04 02:29:36;;;;;;;1.70;1.27;;;19.60;85.20;;;;;;5063922;28;20131;-31
2023/09/04 02:32:03;;;;;;;2.63;1.20;;;19.40;84.90;;;;;;5063208;28;20556;-31
2023/09/04 02:34:29;;;;;;;1.48;1.13;;;20.30;85.70;;;;;;5063047;28;20053;-30
2023/09/04 02:36:58;;;;;;;1.25;1.15;;;;;;;;;;5062380;28;20120;-32
2023/09/04 02:39:24;;;;;;;1.83;1.20;;;20.00;69.50;;;;;;5062786;28;20052;-31
2023/09/04 02:41:51;;;;;;;1.63;1.10;;;19.80;85.70;;;;;;5062127;28;20128;-30
2023/09/04 02:44:18;;;;;;;1.20;1.10;;;20.20;85.60;;;;;;5057956;28;20124;-30
2023/09/04 02:46:46;;;;;;;1.30;1.20;;;19.80;70.80;;;;;;5061154;28;20155;-30
2023/09/04 02:49:12;;;;;;;1.23;1.10;;;19.70;70.50;;;;;;5074196;28;20047;-34
2023/09/04 02:51:39;;;;;;;1.55;1.25;;;19.90;85.60;;;;;;5073893;28;20151;-31
2023/09/04 02:54:06;;;;;;;1.40;1.10;;;;;;;;;;5073754;28;20127;-32
2023/09/04 02:56:33;;;;;;;2.60;1.10;;;20.10;79.40;;;;;;5073956;28;20136;-32
2023/09/04 02:59:00;;;;;;;1.15;1.05;;;20.70;86.00;;;;;;5074149;28;20210;-30
2023/09/04 03:01:26;;;;;;;1.10;1.00;;;19.50;81.10;;;;;;5073916;28;20101;-32
2023/09/04 03:03:54;;;;;;;1.58;1.35;;;20.50;78.70;;;;;;5073227;28;20135;-31
2023/09/04 03:06:21;;;;;;;1.10;1.00;;;19.90;76.10;;;;;;5073684;28;20548;-32
2023/09/04 03:08:48;;;;;;;1.30;1.10;;;19.70;85.50;;;;;;5073741;28;20076;-31
2023/09/04 03:11:15;;;;;;;0.90;0.90;;;;;;;;;;5073591;28;20590;-31
2023/09/04 03:13:42;;;;;;;1.27;1.00;;;19.80;85.40;;;;;;5072923;28;20485;-32
2023/09/04 03:16:09;;;;;;;1.20;1.00;;;19.80;85.60;;;;;;5073860;28;20056;-30
2023/09/04 03:18:36;;;;;;;1.13;1.02;;;;;;;;;;5064215;28;20137;-31
2023/09/04 03:21:04;;;;;;;1.35;1.17;;;18.80;69.50;;;;;;5053276;28;20136;-31
2023/09/04 03:23:32;;;;;;;1.30;1.10;;;18.60;84.50;;;;;;5053193;28;20139;-31
2023/09/04 03:25:59;;;;;;;2.53;1.10;;;19.30;85.00;;;;;;5053625;28;20585;-31
2023/09/04 03:28:26;;;;;;;1.17;1.00;;;;;;;;;;5053495;28;20137;-32
2023/09/04 03:30:53;;;;;;;1.23;1.10;;;19.10;84.80;;;;;;5053464;28;20128;-31
2023/09/04 03:33:19;;;;;;;1.00;0.90;;;20.00;85.30;;;;;;5054129;28;20049;-30
2023/09/04 03:35:46;;;;;;;1.15;1.00;;;20.00;76.00;;;;;;5053048;28;20127;-31
2023/09/04 03:38:14;;;;;;;1.10;1.00;;;20.00;85.50;;;;;;5072279;28;20132;-30
2023/09/04 03:40:41;;;;;;;1.55;1.30;;;20.00;85.30;;;;;;5073220;28;20399;-30
2023/09/04 03:43:08;;;;;;;1.77;1.08;;;;;;;;;;5072606;28;20140;-33
2023/09/04 03:45:35;;;;;;;1.60;1.20;;;19.70;73.30;;;;;;5073142;28;20140;-31
2023/09/04 03:48:02;;;;;;;2.03;1.15;;;;;;;;;;5072862;28;20135;-31
2023/09/04 03:50:29;;;;;;;1.10;1.00;;;19.80;85.40;;;;;;5064400;28;20068;-31
2023/09/04 03:52:56;;;;;;;1.25;1.02;;;19.00;84.60;;;;;;5052516;28;20124;-32
2023/09/04 03:55:25;;;;;;;1.42;1.00;;;20.60;76.60;;;;;;5052899;28;20517;-32
2023/09/04 03:57:52;;;;;;;1.10;0.98;;;19.30;85.20;;;;;;5052746;28;20123;-30
2023/09/04 04:00:20;;;;;;;1.60;1.10;;;;;;;;;;5052654;28;20486;-32
2023/09/04 04:02:48;;;;;;;1.35;1.00;;;19.60;67.20;;;;;;5052618;28;20498;-34
2023/09/04 04:05:15;;;;;;;1.67;1.10;;;19.60;68.40;;;;;;5053292;28;20140;-31
2023/09/04 04:07:43;;;;;;;2.08;0.90;;;19.50;84.90;;;;;;5057980;28;20143;-30
2023/09/04 04:10:10;;;;;;;1.42;1.13;;;19.60;81.80;;;;;;5072603;28;20045;-31
2023/09/04 04:12:38;;;;;;;1.30;1.10;;;19.50;85.20;;;;;;5072479;28;20059;-32
2023/09/04 04:15:06;;;;;;;1.02;1.00;;;19.10;85.00;;;;;;5072421;28;20052;-30
2023/09/04 04:17:32;;;;;;;1.10;1.00;;;19.30;84.70;;;;;;5072263;28;20076;-30
2023/09/04 04:19:59;;;;;;;1.10;1.00;;;;;;;;;;5072263;28;20128;-33
2023/09/04 04:22:26;;;;;;;1.30;1.20;;;19.60;85.20;;;;;;5062384;28;20123;-31
2023/09/04 04:24:53;;;;;;;2.28;1.08;;;19.80;85.00;;;;;;5051706;28;20140;-35
2023/09/04 04:27:20;;;;;;;1.10;1.00;;;19.10;72.00;;;;;;5052075;28;20148;-34
2023/09/04 04:29:49;;;;;;;0.90;0.90;;;19.50;85.10;;;;;;5052021;28;20049;-36
2023/09/04 04:32:16;;;;;;;2.17;0.98;;;19.60;67.10;;;;;;5051847;28;20044;-34
2023/09/04 04:34:43;;;;;;;1.23;1.10;;;19.20;85.00;;;;;;5052135;28;20558;-39
2023/09/04 04:37:09;;;;;;;1.15;0.90;;;19.80;85.40;;;;;;5062153;28;20123;-39
2023/09/04 04:39:36;;;;;;;0.80;0.80;;;19.10;76.70;;;;;;5052066;28;20148;-35
2023/09/04 04:42:03;;;;;;;1.10;1.00;;;19.50;85.00;;;;;;5052232;28;20131;-38
2023/09/04 04:44:30;;;;;;;1.40;1.13;;;19.70;85.40;;;;;;5068734;28;20139;-40
2023/09/04 04:46:58;;;;;;;1.02;0.95;;;19.60;77.60;;;;;;5072009;28;20123;-38
2023/09/04 04:49:25;;;;;;;1.45;1.17;;;19.80;75.70;;;;;;5072109;28;20135;-36
2023/09/04 04:51:51;;;;;;;1.75;1.10;;;19.80;85.50;;;;;;5072065;28;20115;-37
2023/09/04 04:54:19;;;;;;;1.00;0.90;;;;;;;;;;5062967;28;20132;-37
2023/09/04 04:56:47;;;;;;;1.02;0.98;;;20.30;85.30;;;;;;5052005;28;20048;-38
2023/09/04 04:59:14;;;;;;;1.08;0.98;;;19.40;85.20;;;;;;5051869;28;20410;-39
2023/09/04 05:01:41;;;;;;;0.90;0.90;;;;;;;;;;5051716;28;20131;-34
2023/09/04 05:04:09;;;;;;;1.27;1.00;;;20.10;85.50;;;;;;5051731;28;20076;-37
2023/09/04 05:06:35;;;;;;;0.80;0.80;;;19.80;84.90;;;;;;5051670;28;20091;-38
2023/09/04 05:09:03;;;;;;;0.80;0.80;;;19.50;84.80;;;;;;5067364;28;20153;-38
2023/09/04 05:11:30;;;;;;;0.88;0.88;;;19.90;85.10;;;;;;5051925;28;20041;-30
2023/09/04 05:13:57;;;;;;;1.05;1.00;;;;;;;;;;5051377;28;20136;-35
2023/09/04 05:16:26;;;;;;;0.80;0.80;;;19.40;85.10;;;;;;5051825;28;20126;-29
2023/09/04 05:18:53;;;;;;;0.95;0.90;;;19.10;85.00;;;;;;5051680;28;20059;-30
2023/09/04 05:21:21;;;;;;;0.80;0.80;;;19.40;84.90;;;;;;5051625;28;20464;-29
2023/09/04 05:23:48;;;;;;;0.80;0.80;;;19.80;85.40;;;;;;5051287;28;20095;-30
2023/09/04 05:26:15;;;;;;;0.80;0.80;;;19.60;85.40;;;;;;5052776;28;20044;-31
2023/09/04 05:28:42;;;;;;;0.70;0.70;;;19.20;74.30;;;;;;5063130;28;20143;-30
2023/09/04 05:31:08;;;;;;;0.80;0.80;;;19.10;84.80;;;;;;5071624;28;20563;-30
2023/09/04 05:33:35;;;;;;;0.90;0.90;;;19.80;85.20;;;;;;5071376;28;20128;-30
2023/09/04 05:36:02;;;;;;;0.80;0.80;;;19.60;75.80;;;;;;5071062;28;20557;-30
2023/09/04 05:38:30;;;;;;;0.73;0.70;;;20.00;85.70;;;;;;5075230;28;20044;-30
2023/09/04 05:40:58;;;;;;;0.85;0.80;;;19.70;85.50;;;;;;5074911;28;20132;-29
2023/09/04 05:43:24;;;;;;;1.05;0.95;;;19.70;85.10;;;;;;5056431;28;20049;-30
2023/09/04 05:45:51;;;;;;;0.70;0.70;;;20.50;85.50;;;;;;5055602;28;20136;-29
2023/09/04 05:48:18;;;;;;;0.93;0.80;;;;;;;;;;5055240;28;20132;-35
2023/09/04 05:50:45;;;;;;;1.02;0.90;;;18.30;83.80;;;;;;5054854;28;20133;-39
2023/09/04 05:53:11;;;;;;;0.70;0.70;;;19.30;85.20;;;;;;5054940;28;20562;-37
2023/09/04 05:55:42;;;;;;;1.00;0.90;;;19.90;68.80;;;;;;5055088;28;20060;-37
2023/09/04 05:58:10;;;;;;;1.65;0.90;;;19.00;82.40;;;;;;5056238;28;20128;-36
2023/09/04 06:00:37;;;;;;;1.00;0.90;;;19.20;82.50;;;;;;5054914;28;20131;-38
2023/09/04 06:03:04;;;;;;;0.60;0.60;;;19.20;84.80;;;;;;5054964;28;20124;-37
2023/09/04 06:05:31;;;;;;;0.95;0.82;;;19.60;83.40;;;;;;5055067;28;20059;-37
2023/09/04 06:07:57;;;;;;;0.82;0.80;;;19.20;85.10;;;;;;5062094;28;20076;-35
2023/09/04 06:10:24;;;;;;;0.90;0.77;;;20.00;85.80;;;;;;5074844;28;20128;-37
2023/09/04 06:12:54;;;;;;;0.90;0.90;;;;;;;;;;5073942;28;20102;-37
2023/09/04 06:15:21;;;;;;;0.70;0.70;;;19.00;84.90;;;;;;5054842;28;20523;-38
2023/09/04 06:17:48;;;;;;;1.58;1.00;;;19.40;85.30;;;;;;5054623;28;20496;-40
2023/09/04 06:20:15;;;;;;;1.17;0.95;;;;;;;;;;5054733;28;20080;-36
2023/09/04 06:22:43;;;;;;;0.75;0.75;;;19.20;70.00;;;;;;5054203;28;20564;-36
2023/09/04 06:25:10;;;;;;;1.08;0.85;;;;;;;;;;5070982;28;20076;-36
2023/09/04 06:27:38;;;;;;;1.05;0.90;;;;;;;;;;5064878;28;20140;-36
2023/09/04 06:30:08;;;;;;;1.17;1.00;;;20.50;85.60;;;;;;5063302;28;20643;-39
2023/09/04 06:32:34;;;;;;;1.05;0.95;;;19.30;85.30;;;;;;5054186;28;20084;-37
2023/09/04 06:35:01;;;;;;;2.25;1.00;;;19.20;84.90;;;;;;5055021;28;20124;-39
2023/09/04 06:37:28;;;;;;;1.05;0.95;;;19.10;78.00;;;;;;5073912;28;20131;-32
2023/09/04 06:39:55;;;;;;;1.15;0.93;;;19.10;84.90;;;;;;5074419;28;20414;-35
2023/09/04 06:42:21;;;;;;;1.05;1.00;;;19.30;85.00;;;;;;5074346;28;20127;-36
2023/09/04 06:44:48;;;;;;;1.17;1.00;;;19.80;81.10;;;;;;5071557;28;20132;-34
2023/09/04 06:47:16;;;;;;;0.98;0.90;;;19.40;78.00;;;;;;5054231;28;20128;-35
2023/09/04 06:49:43;;;;;;;2.88;1.10;;;18.90;77.50;;;;;;5053853;28;20124;-36
2023/09/04 06:52:09;;;;;;;1.13;0.93;;;19.60;85.40;;;;;;5062427;28;20127;-38
2023/09/04 06:54:36;;;;;;;1.42;1.20;;;19.20;70.20;;;;;;5059328;28;20128;-36
2023/09/04 06:57:03;;;;;;;1.85;1.20;;;19.50;85.30;;;;;;5066658;28;20123;-38
2023/09/04 06:59:29;;;;;;;1.13;1.02;;;19.60;85.50;;;;;;5073988;28;20128;-38
2023/09/04 07:01:57;;;;;;;1.55;1.17;;;;;;;;;;5063289;28;20136;-35
2023/09/04 07:04:25;;;;;;;1.92;1.20;;;19.40;85.00;;;;;;5053277;28;20537;-37
2023/09/04 07:06:51;;;;;;;3.72;1.20;;;19.30;85.00;;;;;;5053806;28;20132;-39
2023/09/04 07:09:18;;;;;;;1.48;1.10;;;;;;;;;;5071432;28;20127;-35
2023/09/04 07:11:45;;;;;;;1.77;1.13;;;19.60;85.20;;;;;;5063893;28;20120;-39
2023/09/04 07:14:12;;;;;;;1.25;1.10;;;19.10;85.20;;;;;;5063670;28;20570;-39
2023/09/04 07:16:39;;;;;;;2.63;1.40;;;;;;;;;;5061797;28;20145;-33
2023/09/04 07:19:05;;;;;;;1.70;1.30;;;18.70;84.90;;;;;;5053282;28;20145;-38
2023/09/04 07:21:36;;;;;;;1.20;1.10;;;19.70;85.50;;;;;;5053773;28;20124;-37
2023/09/04 07:24:03;;;;;;;3.38;1.40;;;19.40;84.90;;;;;;5069335;28;20040;-39
2023/09/04 07:26:29;;;;;;;5.10;1.40;;;19.50;85.00;;;;;;5058484;28;20045;-36
2023/09/04 07:28:56;;;;;;;2.15;1.30;;;19.70;85.30;;;;;;5069637;28;20120;-38
2023/09/04 07:31:23;;;;;;;1.70;1.10;;;;;;;;;;5071679;28;20381;-31
2023/09/04 07:33:50;;;;;;;3.25;1.30;;;19.30;79.10;;;;;;5073302;28;20127;-36
2023/09/04 07:36:17;;;;;;;2.15;1.20;;;19.20;85.20;;;;;;5070544;28;20620;-36
2023/09/04 07:38:46;;;;;;;2.13;1.50;;;19.30;78.30;;;;;;5053359;28;20131;-35
2023/09/04 07:41:12;;;;;;;3.80;1.40;;;19.20;85.00;;;;;;5060785;28;20124;-39
2023/09/04 07:43:39;;;;;;;1.70;1.30;;;19.40;82.00;;;;;;5063008;28;20077;-38
2023/09/04 07:46:06;;;;;;;4.65;2.03;;;19.60;76.70;;;;;;5063334;28;20435;-39
2023/09/04 07:48:33;;;;;;;2.85;1.38;;;19.80;74.80;;;;;;5060784;28;20124;-38
2023/09/04 07:51:00;;;;;;;2.95;1.15;;;19.70;81.70;;;;;;5054181;28;20041;-39
2023/09/04 07:53:27;;;;;;;2.13;1.40;;;19.10;84.20;;;;;;5054203;28;20108;-37
2023/09/04 07:55:55;;;;;;;1.92;1.23;;;19.50;67.30;;;;;;5071270;28;20140;-32
2023/09/04 07:58:22;;;;;;;3.25;1.20;;;;;;;;;;5071359;28;20478;-31
2023/09/04 08:00:49;;;;;;;2.75;1.45;;;19.70;82.10;;;;;;5071081;28;20051;-35
2023/09/04 08:03:16;;;;;;;1.58;1.30;;;;;;;;;;5071769;28;20064;-34
2023/09/04 08:05:43;;;;;;;2.03;1.20;;;19.70;85.70;;;;;;5072561;28;20083;-36
2023/09/04 08:08:10;;;;;;;4.82;1.45;;;;;;;;;;5062646;28;20080;-38
2023/09/04 08:10:39;;;;;;;2.00;1.40;;;;;;;;;;5052566;28;20067;-35
2023/09/04 08:13:09;;;;;;;4.25;1.65;;;19.50;67.50;;;;;;5051969;28;20053;-32
2023/09/04 08:15:36;;;;;;;1.70;1.20;;;;;;;;;;5052427;28;20140;-36
2023/09/04 08:18:04;;;;;;;2.13;1.40;;;18.50;84.80;;;;;;5052687;28;20546;-35
2023/09/04 08:20:31;;;;;;;1.60;1.38;;;;;;;;;;5056612;28;20075;-32
2023/09/04 08:22:57;;;;;;;1.70;1.30;;;19.80;85.70;;;;;;5071739;28;20451;-35
2023/09/04 08:25:24;;;;;;;2.95;1.40;;;20.00;85.90;;;;;;5072413;28;20127;-35
2023/09/04 08:27:51;;;;;;;1.58;1.20;;;;;;;;;;5072003;28;20147;-35
2023/09/04 08:30:19;;;;;;;1.83;1.30;;;19.40;85.30;;;;;;5072381;28;20131;-35
2023/09/04 08:32:46;;;;;;;1.75;1.27;;;19.80;85.60;;;;;;5071703;28;20128;-36
2023/09/04 08:35:13;;;;;;;1.95;1.45;;;;;;;;;;5071278;28;20168;-32
2023/09/04 08:37:40;;;;;;;3.10;1.40;;;19.60;85.40;;;;;;5071494;28;20131;-33
2023/09/04 08:40:07;;;;;;;2.38;1.50;;;19.30;85.60;;;;;;5072043;28;20139;-37
2023/09/04 08:42:35;;;;;;;2.67;1.48;;;19.60;85.60;;;;;;5072004;28;20127;-34
2023/09/04 08:45:02;;;;;;;2.03;1.40;;;20.00;79.10;;;;;;5072052;28;20052;-35
2023/09/04 08:47:30;;;;;;;4.35;1.65;;;19.60;85.40;;;;;;5071153;28;20052;-33
2023/09/04 08:49:57;;;;;;;3.80;1.20;;;;;;;;;;5072009;28;20131;-36
2023/09/04 08:52:24;;;;;;;1.92;1.30;;;;;;;;;;5071645;28;20489;-35
2023/09/04 08:54:51;;;;;;;1.85;1.33;;;19.60;85.60;;;;;;5071719;28;20128;-36
2023/09/04 08:57:18;;;;;;;2.67;1.38;;;;;;;;;;5071965;28;20072;-32
2023/09/04 08:59:45;;;;;;;1.88;1.50;;;19.70;85.40;;;;;;5071966;28;20135;-36
2023/09/04 09:02:14;;;;;;;1.73;1.27;;;19.50;85.40;;;;;;5056540;28;20443;-35
2023/09/04 09:04:42;;;;;;;1.70;1.13;;;19.80;85.70;;;;;;5051644;28;20128;-34
2023/09/04 09:07:09;;;;;;;1.52;1.20;;;20.00;85.40;;;;;;5052353;28;20128;-34
2023/09/04 09:09:36;;;;;;;2.13;1.27;;;;;;;;;;5071612;28;20079;-33
2023/09/04 09:12:03;;;;;;;1.95;1.30;;;;;;;;;;5074908;28;20135;-32
2023/09/04 09:14:31;;;;;;;3.03;1.30;;;;;;;;;;5075636;28;20139;-33
2023/09/04 09:17:04;;;;;;;2.88;1.35;;;19.80;67.20;;;;;;5066407;28;20131;-36
2023/09/04 09:19:32;;;;;;;2.15;1.25;;;19.90;86.40;;;;;;5076774;28;20137;-39
2023/09/04 09:22:11;;;;;;;1.55;1.20;;;20.50;85.30;;;;;;5078099;28;20052;-38
2023/09/04 09:24:49;;;;;;;2.92;1.20;;;20.80;85.10;;;;;;5077950;28;20433;-37
2023/09/04 09:27:15;;;;;;;2.53;1.20;;;19.10;83.70;;;;;;5078340;28;20051;-39
2023/09/04 09:29:42;;;;;;;2.78;1.40;;;20.40;84.60;;;;;;5077799;28;20116;-40
2023/09/04 09:32:09;;;;;;;2.05;1.50;;;20.10;72.40;;;;;;5078022;28;20135;-35
2023/09/04 09:34:36;;;;;;;2.90;1.52;;;;;;;;;;5077670;28;20135;-37
2023/09/04 09:37:04;;;;;;;2.35;1.55;;;;;;;;;;5068474;28;20119;-36
2023/09/04 09:39:33;;;;;;;2.15;1.48;;;20.20;83.70;;;;;;5067587;28;20091;-39
2023/09/04 09:42:01;;;;;;;2.95;1.42;;;;;;;;;;5070579;28;20060;-36
2023/09/04 09:44:30;;;;;;;1.95;1.65;;;20.10;71.40;;;;;;5077813;28;20051;-38
2023/09/04 09:46:57;;;;;;;1.95;1.33;;;;;;;;;;5078106;28;20052;-36
2023/09/04 09:49:24;;;;;;;2.25;1.58;;;20.80;80.70;;;;;;5077883;28;20045;-34
2023/09/04 09:51:53;;;;;;;3.10;1.40;;;20.10;83.20;;;;;;5075794;28;20120;-37
2023/09/04 09:54:37;;;;;;;2.10;1.40;;;20.60;65.50;;;;;;5066305;28;20136;-32
2023/09/04 09:57:07;;;;;;;2.33;1.35;;;20.30;82.20;;;;;;5063315;28;20102;-35
2023/09/04 09:59:34;;;;;;;2.60;1.40;;;20.30;69.30;;;;;;5077292;28;20566;-33
2023/09/04 10:02:01;;;;;;;1.58;1.30;;;21.10;83.00;;;;;;5077891;28;20401;-36
2023/09/04 10:04:27;;;;;;;1.95;1.38;;;20.40;82.50;;;;;;5077861;28;20127;-39
2023/09/04 10:06:55;;;;;;;2.03;1.17;;;21.20;82.10;;;;;;5078021;28;20131;-36
2023/09/04 10:09:23;;;;;;;1.60;1.20;;;20.10;82.20;;;;;;5076820;28;20047;-39
2023/09/04 10:11:54;;;;;;;3.00;1.20;;;20.90;65.10;;;;;;5077573;28;20048;-36
2023/09/04 10:14:23;;;;;;;2.65;1.38;;;21.10;69.00;;;;;;5073061;28;20128;-34
2023/09/04 10:16:53;;;;;;;2.38;1.20;;;21.10;65.40;;;;;;5057855;28;20132;-35
2023/09/04 10:19:19;;;;;;;4.57;1.30;;;20.80;83.10;;;;;;5057567;28;20140;-35
2023/09/04 10:21:50;;;;;;;4.22;1.42;;;21.00;65.00;;;;;;5072977;28;20059;-34
2023/09/04 10:24:17;;;;;;;1.42;1.30;;;22.00;82.80;;;;;;5074599;28;20131;-38
2023/09/04 10:26:47;;;;;;;1.95;1.30;;;21.00;82.50;;;;;;5070559;28;20131;-37
2023/09/04 10:29:17;;;;;;;3.30;1.48;;;21.30;73.90;;;;;;5054394;28;20128;-39
2023/09/04 10:31:44;;;;;;;2.22;1.50;;;21.40;82.20;;;;;;5060352;28;20120;-37
2023/09/04 10:34:11;;;;;;;2.03;1.40;;;21.20;68.60;;;;;;5060824;28;20128;-34
2023/09/04 10:36:38;;;;;;;1.45;1.13;;;21.90;74.70;;;;;;5066988;28;20123;-37
2023/09/04 10:39:06;;;;;;;1.83;1.40;;;21.00;71.90;;;;;;5071819;28;20059;-35
2023/09/04 10:41:33;;;;;;;2.40;1.60;;;21.10;81.90;;;;;;5069777;28;20494;-36
2023/09/04 10:44:00;;;;;;;1.20;1.10;;;20.40;81.50;;;;;;5073940;28;20064;-36
2023/09/04 10:46:28;;;;;;;1.92;1.40;;;21.40;75.80;;;;;;5074292;28;20076;-39
2023/09/04 10:48:55;;;;;;;1.58;1.33;;;;;;;;;;5073582;28;20052;-32
2023/09/04 10:51:29;;;;;;;1.70;1.30;;;21.00;82.10;;;;;;5073959;28;20551;-38
2023/09/04 10:53:56;;;;;;;1.90;1.40;;;;;;;;;;5058382;28;20140;-34
2023/09/04 10:56:23;;;;;;;3.58;1.45;;;21.70;82.70;;;;;;5054156;28;20132;-39
2023/09/04 10:59:00;;;;;;;1.30;1.20;;;21.50;82.20;;;;;;5053888;28;20049;-35
2023/09/04 11:01:38;;;;;;;3.03;1.52;;;21.10;64.90;;;;;;5054000;28;20138;-33
2023/09/04 11:04:07;;;;;;;1.77;1.50;;;21.20;83.00;;;;;;5053324;28;20076;-34
2023/09/04 11:06:34;;;;;;;1.30;1.20;;;21.00;65.00;;;;;;5060496;28;20452;-36
2023/09/04 11:09:02;;;;;;;1.70;1.30;;;20.00;81.90;;;;;;5073611;28;20048;-36
2023/09/04 11:11:29;;;;;;;2.55;1.40;;;21.60;83.00;;;;;;5073447;28;20406;-39
2023/09/04 11:13:56;;;;;;;1.92;1.33;;;21.10;82.50;;;;;;5073389;28;20091;-35
2023/09/04 11:16:23;;;;;;;1.73;1.50;;;21.30;83.60;;;;;;5073567;28;20044;-30
2023/09/04 11:19:02;;;;;;;1.67;1.33;;;20.90;65.20;;;;;;5073676;28;20131;-31
2023/09/04 11:21:33;;;;;;;2.22;1.40;;;21.20;82.80;;;;;;5053664;28;20045;-31
2023/09/04 11:24:00;;;;;;;2.47;1.35;;;21.10;82.80;;;;;;5053009;28;20566;-30
2023/09/04 11:26:28;;;;;;;1.60;1.20;;;20.70;83.40;;;;;;5053530;28;20099;-31
2023/09/04 11:28:58;;;;;;;1.85;1.27;;;21.20;83.10;;;;;;5053333;28;20124;-31
2023/09/04 11:31:26;;;;;;;1.85;1.30;;;20.60;74.30;;;;;;5053298;28;20041;-31
2023/09/04 11:33:55;;;;;;;1.70;1.17;;;20.60;82.60;;;;;;5064548;28;20383;-31
2023/09/04 11:36:22;;;;;;;2.58;1.48;;;21.10;83.00;;;;;;5071591;28;20516;-30
2023/09/04 11:38:49;;;;;;;2.17;1.35;;;;;;;;;;5073269;28;20052;-31
2023/09/04 11:41:16;;;;;;;1.85;1.30;;;19.90;82.30;;;;;;5073043;28;20135;-30
2023/09/04 11:43:42;;;;;;;2.40;1.33;;;22.00;83.40;;;;;;5072774;28;20068;-30
2023/09/04 11:46:09;;;;;;;1.50;1.30;;;20.90;77.00;;;;;;5072318;28;20549;-31
2023/09/04 11:48:36;;;;;;;1.42;1.30;;;20.00;82.60;;;;;;5072446;28;20127;-31
2023/09/04 11:51:07;;;;;;;2.63;1.30;;;20.70;65.60;;;;;;5072980;28;20155;-30
2023/09/04 11:53:33;;;;;;;2.10;1.23;;;21.10;77.60;;;;;;5072658;28;20048;-32
2023/09/04 11:56:00;;;;;;;1.83;1.35;;;21.60;83.40;;;;;;5071958;28;20133;-30
2023/09/04 11:58:28;;;;;;;1.60;1.30;;;;;;;;;;5068074;28;20083;-33
2023/09/04 12:00:54;;;;;;;3.08;1.40;;;20.60;83.80;;;;;;5072642;28;20048;-30
2023/09/04 12:03:21;;;;;;;1.83;1.30;;;19.90;82.60;;;;;;5072579;28;20128;-30
2023/09/04 12:05:51;;;;;;;1.95;1.42;;;19.80;76.80;;;;;;5072716;28;20092;-31
2023/09/04 12:08:19;;;;;;;1.77;1.40;;;20.70;65.80;;;;;;5072515;28;20497;-33
2023/09/04 12:10:46;;;;;;;2.08;1.30;;;;;;;;;;5061796;28;20133;-34
2023/09/04 12:13:13;;;;;;;2.47;1.30;;;20.70;83.50;;;;;;5052269;28;20036;-31
2023/09/04 12:15:40;;;;;;;2.40;1.55;;;;;;;;;;5052485;28;20578;-36
2023/09/04 12:18:07;;;;;;;1.48;1.23;;;21.70;83.80;;;;;;5052880;28;20439;-38
2023/09/04 12:20:34;;;;;;;2.47;1.30;;;20.70;65.90;;;;;;5051353;28;20080;-34
2023/09/04 12:23:01;;;;;;;1.30;1.20;;;20.60;70.00;;;;;;5052810;28;20044;-38
2023/09/04 12:25:36;;;;;;;1.63;1.23;;;20.50;67.50;;;;;;5072482;28;20044;-36
2023/09/04 12:28:04;;;;;;;3.05;1.58;;;;;;;;;;5072083;28;20418;-34
2023/09/04 12:30:31;;;;;;;1.27;1.10;;;21.00;83.10;;;;;;5072554;28;20413;-35
2023/09/04 12:32:58;;;;;;;2.70;1.20;;;20.90;83.40;;;;;;5071759;28;20127;-35
2023/09/04 12:35:25;;;;;;;1.85;1.38;;;19.90;75.70;;;;;;5072033;28;20502;-39
2023/09/04 12:37:53;;;;;;;1.88;1.40;;;21.00;81.20;;;;;;5070508;28;20131;-37
2023/09/04 12:40:21;;;;;;;1.70;1.23;;;20.60;75.90;;;;;;5071966;28;20151;-30
2023/09/04 12:42:49;;;;;;;1.40;1.10;;;21.00;83.30;;;;;;5072014;28;20045;-31
2023/09/04 12:45:16;;;;;;;1.98;1.35;;;20.80;83.70;;;;;;5071899;28;20123;-30
2023/09/04 12:47:42;;;;;;;1.40;1.30;;;21.10;83.50;;;;;;5071152;28;20056;-30
2023/09/04 12:50:09;;;;;;;1.58;1.48;;;20.40;68.60;;;;;;5071916;28;20147;-30
2023/09/04 12:52:36;;;;;;;1.38;1.27;;;20.60;84.10;;;;;;5071323;28;20128;-31
2023/09/04 12:55:03;;;;;;;2.22;1.30;;;;;;;;;;5071723;28;20140;-35
2023/09/04 12:57:30;;;;;;;4.40;1.30;;;21.30;78.90;;;;;;5071718;28;20056;-30
2023/09/04 12:59:58;;;;;;;1.88;1.20;;;20.70;66.00;;;;;;5072157;28;20084;-33
2023/09/04 13:02:25;;;;;;;1.20;1.10;;;20.70;66.00;;;;;;5072095;28;20131;-34
2023/09/04 13:04:52;;;;;;;1.85;1.15;;;21.60;83.70;;;;;;5071767;28;20557;-30
2023/09/04 13:07:19;;;;;;;1.65;1.10;;;20.40;83.20;;;;;;5071697;28;20131;-37